sensor_id;sensor_type;location;lat;lon;timestamp;P1;durP1;ratioP1;P2;durP2;ratioP2
40252;SDS011;25972;51.854;4.534;2023-05-08T00:00:28;16.15;;;8.65;;
40252;SDS011;25972;51.854;4.534;2023-05-08T00:02:54;15.32;;;8.07;;
40252;SDS011;25972;51.854;4.534;2023-05-08T00:05:20;17.88;;;8.30;;
40252;SDS011;25972;51.854;4.534;2023-05-08T00:07:46;17.88;;;8.52;;
40252;SDS011;25972;51.854;4.534;2023-05-08T00:10:12;16.50;;;8.32;;
40252;SDS011;25972;51.854;4.534;2023-05-08T00:12:38;14.30;;;7.60;;
40252;SDS011;25972;51.854;4.534;2023-05-08T00:15:04;15.10;;;8.20;;
40252;SDS011;25972;51.854;4.534;2023-05-08T00:17:30;16.27;;;8.05;;
40252;SDS011;25972;51.854;4.534;2023-05-08T00:19:56;17.35;;;8.43;;
40252;SDS011;25972;51.854;4.534;2023-05-08T00:22:22;14.85;;;8.10;;
40252;SDS011;25972;51.854;4.534;2023-05-08T00:24:47;17.40;;;8.20;;
40252;SDS011;25972;51.854;4.534;2023-05-08T00:27:13;17.13;;;8.70;;
40252;SDS011;25972;51.854;4.534;2023-05-08T00:29:39;15.70;;;7.85;;
40252;SDS011;25972;51.854;4.534;2023-05-08T00:32:05;19.02;;;9.48;;
40252;SDS011;25972;51.854;4.534;2023-05-08T00:34:32;17.65;;;9.23;;
40252;SDS011;25972;51.854;4.534;2023-05-08T00:36:57;18.25;;;9.50;;
40252;SDS011;25972;51.854;4.534;2023-05-08T00:39:23;20.67;;;9.52;;
40252;SDS011;25972;51.854;4.534;2023-05-08T00:41:49;20.40;;;10.52;;
40252;SDS011;25972;51.854;4.534;2023-05-08T00:44:15;22.75;;;10.50;;
40252;SDS011;25972;51.854;4.534;2023-05-08T00:46:41;20.13;;;10.10;;
40252;SDS011;25972;51.854;4.534;2023-05-08T00:49:07;19.15;;;9.50;;
40252;SDS011;25972;51.854;4.534;2023-05-08T00:51:37;18.50;;;10.23;;
40252;SDS011;25972;51.854;4.534;2023-05-08T00:54:04;19.63;;;10.00;;
40252;SDS011;25972;51.854;4.534;2023-05-08T00:56:29;19.08;;;9.70;;
40252;SDS011;25972;51.854;4.534;2023-05-08T00:58:57;22.25;;;10.63;;
40252;SDS011;25972;51.854;4.534;2023-05-08T01:01:24;16.80;;;9.82;;
40252;SDS011;25972;51.854;4.534;2023-05-08T01:03:50;21.00;;;10.63;;
40252;SDS011;25972;51.854;4.534;2023-05-08T01:06:15;20.77;;;10.57;;
40252;SDS011;25972;51.854;4.534;2023-05-08T01:08:44;22.23;;;10.70;;
40252;SDS011;25972;51.854;4.534;2023-05-08T01:11:24;22.73;;;10.77;;
40252;SDS011;25972;51.854;4.534;2023-05-08T01:14:20;18.27;;;9.65;;
40252;SDS011;25972;51.854;4.534;2023-05-08T01:17:04;23.13;;;11.32;;
40252;SDS011;25972;51.854;4.534;2023-05-08T01:33:32;22.17;;;11.00;;
40252;SDS011;25972;51.854;4.534;2023-05-08T01:36:08;22.90;;;10.88;;
40252;SDS011;25972;51.854;4.534;2023-05-08T01:41:28;22.08;;;11.23;;
40252;SDS011;25972;51.854;4.534;2023-05-08T01:46:45;20.55;;;10.05;;
40252;SDS011;25972;51.854;4.534;2023-05-08T01:49:21;21.23;;;11.30;;
40252;SDS011;25972;51.854;4.534;2023-05-08T01:51:58;20.98;;;10.55;;
40252;SDS011;25972;51.854;4.534;2023-05-08T01:54:46;24.40;;;11.40;;
40252;SDS011;25972;51.854;4.534;2023-05-08T01:57:18;21.88;;;11.02;;
40252;SDS011;25972;51.854;4.534;2023-05-08T01:59:45;26.42;;;11.82;;
40252;SDS011;25972;51.854;4.534;2023-05-08T02:02:13;22.20;;;11.45;;
40252;SDS011;25972;51.854;4.534;2023-05-08T02:04:41;22.40;;;11.68;;
40252;SDS011;25972;51.854;4.534;2023-05-08T02:07:08;25.65;;;12.30;;
40252;SDS011;25972;51.854;4.534;2023-05-08T02:09:35;24.48;;;12.65;;
40252;SDS011;25972;51.854;4.534;2023-05-08T02:12:02;23.10;;;10.75;;
40252;SDS011;25972;51.854;4.534;2023-05-08T02:14:28;20.63;;;10.48;;
40252;SDS011;25972;51.854;4.534;2023-05-08T02:16:56;23.20;;;11.68;;
40252;SDS011;25972;51.854;4.534;2023-05-08T02:19:24;23.60;;;11.70;;
40252;SDS011;25972;51.854;4.534;2023-05-08T02:21:53;23.67;;;11.60;;
40252;SDS011;25972;51.854;4.534;2023-05-08T02:24:21;20.40;;;10.68;;
40252;SDS011;25972;51.854;4.534;2023-05-08T02:26:49;22.70;;;11.13;;
40252;SDS011;25972;51.854;4.534;2023-05-08T02:29:16;24.60;;;12.75;;
40252;SDS011;25972;51.854;4.534;2023-05-08T02:31:45;26.02;;;12.60;;
40252;SDS011;25972;51.854;4.534;2023-05-08T02:34:12;24.88;;;12.48;;
40252;SDS011;25972;51.854;4.534;2023-05-08T02:36:38;22.13;;;11.88;;
40252;SDS011;25972;51.854;4.534;2023-05-08T02:39:05;26.63;;;12.27;;
40252;SDS011;25972;51.854;4.534;2023-05-08T02:41:35;25.38;;;12.70;;
40252;SDS011;25972;51.854;4.534;2023-05-08T02:44:02;24.98;;;13.20;;
40252;SDS011;25972;51.854;4.534;2023-05-08T02:46:33;24.45;;;11.90;;
40252;SDS011;25972;51.854;4.534;2023-05-08T02:49:20;26.45;;;12.20;;
40252;SDS011;25972;51.854;4.534;2023-05-08T02:52:11;26.85;;;13.05;;
40252;SDS011;25972;51.854;4.534;2023-05-08T02:57:41;27.17;;;12.82;;
40252;SDS011;25972;51.854;4.534;2023-05-08T03:02:39;29.40;;;13.55;;
40252;SDS011;25972;51.854;4.534;2023-05-08T03:05:10;26.10;;;12.27;;
40252;SDS011;25972;51.854;4.534;2023-05-08T03:07:41;27.15;;;13.25;;
40252;SDS011;25972;51.854;4.534;2023-05-08T03:10:10;24.55;;;12.30;;
40252;SDS011;25972;51.854;4.534;2023-05-08T03:12:47;25.98;;;12.50;;
40252;SDS011;25972;51.854;4.534;2023-05-08T03:15:26;23.00;;;12.05;;
40252;SDS011;25972;51.854;4.534;2023-05-08T03:18:07;23.77;;;12.23;;
40252;SDS011;25972;51.854;4.534;2023-05-08T03:20:37;27.52;;;12.75;;
40252;SDS011;25972;51.854;4.534;2023-05-08T03:23:08;26.55;;;13.02;;
40252;SDS011;25972;51.854;4.534;2023-05-08T03:25:35;28.27;;;13.23;;
40252;SDS011;25972;51.854;4.534;2023-05-08T03:28:04;30.70;;;14.07;;
40252;SDS011;25972;51.854;4.534;2023-05-08T03:30:32;30.60;;;14.98;;
40252;SDS011;25972;51.854;4.534;2023-05-08T03:33:06;33.45;;;14.48;;
40252;SDS011;25972;51.854;4.534;2023-05-08T03:35:35;27.77;;;14.45;;
40252;SDS011;25972;51.854;4.534;2023-05-08T03:38:03;28.05;;;13.30;;
40252;SDS011;25972;51.854;4.534;2023-05-08T03:40:30;28.55;;;13.38;;
40252;SDS011;25972;51.854;4.534;2023-05-08T03:43:01;34.13;;;15.23;;
40252;SDS011;25972;51.854;4.534;2023-05-08T03:45:28;30.13;;;13.15;;
40252;SDS011;25972;51.854;4.534;2023-05-08T03:47:56;33.25;;;15.32;;
40252;SDS011;25972;51.854;4.534;2023-05-08T03:50:23;28.90;;;14.43;;
40252;SDS011;25972;51.854;4.534;2023-05-08T03:52:49;30.77;;;14.50;;
40252;SDS011;25972;51.854;4.534;2023-05-08T03:55:16;34.33;;;14.50;;
40252;SDS011;25972;51.854;4.534;2023-05-08T03:57:48;30.08;;;14.68;;
40252;SDS011;25972;51.854;4.534;2023-05-08T04:03:20;29.08;;;14.25;;
40252;SDS011;25972;51.854;4.534;2023-05-08T04:06:00;32.50;;;14.20;;
40252;SDS011;25972;51.854;4.534;2023-05-08T04:08:38;33.75;;;14.77;;
40252;SDS011;25972;51.854;4.534;2023-05-08T04:11:16;30.08;;;14.13;;
40252;SDS011;25972;51.854;4.534;2023-05-08T04:13:53;28.52;;;13.05;;
40252;SDS011;25972;51.854;4.534;2023-05-08T04:16:25;30.77;;;13.63;;
40252;SDS011;25972;51.854;4.534;2023-05-08T04:18:55;34.10;;;15.25;;
40252;SDS011;25972;51.854;4.534;2023-05-08T04:21:28;33.38;;;15.10;;
40252;SDS011;25972;51.854;4.534;2023-05-08T04:23:57;38.33;;;15.98;;
40252;SDS011;25972;51.854;4.534;2023-05-08T04:26:24;34.67;;;16.58;;
40252;SDS011;25972;51.854;4.534;2023-05-08T04:28:51;37.08;;;16.33;;
40252;SDS011;25972;51.854;4.534;2023-05-08T04:31:17;35.05;;;17.42;;
40252;SDS011;25972;51.854;4.534;2023-05-08T04:33:44;36.85;;;17.00;;
40252;SDS011;25972;51.854;4.534;2023-05-08T04:36:11;35.58;;;16.20;;
40252;SDS011;25972;51.854;4.534;2023-05-08T04:38:39;35.28;;;16.80;;
40252;SDS011;25972;51.854;4.534;2023-05-08T04:41:06;31.88;;;15.48;;
40252;SDS011;25972;51.854;4.534;2023-05-08T04:43:33;37.25;;;16.42;;
40252;SDS011;25972;51.854;4.534;2023-05-08T04:46:00;36.63;;;16.65;;
40252;SDS011;25972;51.854;4.534;2023-05-08T04:48:26;35.38;;;17.08;;
40252;SDS011;25972;51.854;4.534;2023-05-08T04:50:52;33.28;;;16.02;;
40252;SDS011;25972;51.854;4.534;2023-05-08T04:53:18;36.22;;;17.33;;
40252;SDS011;25972;51.854;4.534;2023-05-08T04:55:43;36.83;;;17.25;;
40252;SDS011;25972;51.854;4.534;2023-05-08T04:58:09;37.80;;;17.05;;
40252;SDS011;25972;51.854;4.534;2023-05-08T05:00:35;38.80;;;17.63;;
40252;SDS011;25972;51.854;4.534;2023-05-08T05:03:01;41.45;;;17.67;;
40252;SDS011;25972;51.854;4.534;2023-05-08T05:05:27;41.22;;;17.13;;
40252;SDS011;25972;51.854;4.534;2023-05-08T05:07:53;37.50;;;17.90;;
40252;SDS011;25972;51.854;4.534;2023-05-08T05:10:19;39.05;;;15.82;;
40252;SDS011;25972;51.854;4.534;2023-05-08T05:12:45;34.83;;;16.17;;
40252;SDS011;25972;51.854;4.534;2023-05-08T05:15:11;45.22;;;17.85;;
40252;SDS011;25972;51.854;4.534;2023-05-08T05:17:38;41.42;;;17.08;;
40252;SDS011;25972;51.854;4.534;2023-05-08T05:20:04;35.08;;;15.85;;
40252;SDS011;25972;51.854;4.534;2023-05-08T05:22:31;34.10;;;14.52;;
40252;SDS011;25972;51.854;4.534;2023-05-08T05:24:57;31.35;;;13.63;;
40252;SDS011;25972;51.854;4.534;2023-05-08T05:27:24;28.45;;;12.15;;
40252;SDS011;25972;51.854;4.534;2023-05-08T05:29:50;30.52;;;12.63;;
40252;SDS011;25972;51.854;4.534;2023-05-08T05:32:16;31.25;;;12.75;;
40252;SDS011;25972;51.854;4.534;2023-05-08T05:34:42;26.77;;;9.73;;
40252;SDS011;25972;51.854;4.534;2023-05-08T05:37:08;25.63;;;10.13;;
40252;SDS011;25972;51.854;4.534;2023-05-08T05:39:34;23.05;;;9.50;;
40252;SDS011;25972;51.854;4.534;2023-05-08T05:42:02;20.60;;;7.85;;
40252;SDS011;25972;51.854;4.534;2023-05-08T05:44:28;20.85;;;7.93;;
40252;SDS011;25972;51.854;4.534;2023-05-08T05:46:54;19.80;;;7.78;;
40252;SDS011;25972;51.854;4.534;2023-05-08T05:49:21;19.30;;;6.63;;
40252;SDS011;25972;51.854;4.534;2023-05-08T05:51:47;19.77;;;7.32;;
40252;SDS011;25972;51.854;4.534;2023-05-08T05:54:14;22.08;;;7.60;;
40252;SDS011;25972;51.854;4.534;2023-05-08T05:56:40;19.75;;;7.18;;
40252;SDS011;25972;51.854;4.534;2023-05-08T05:59:06;17.70;;;7.20;;
40252;SDS011;25972;51.854;4.534;2023-05-08T06:01:32;19.85;;;7.57;;
40252;SDS011;25972;51.854;4.534;2023-05-08T06:03:58;21.55;;;7.60;;
40252;SDS011;25972;51.854;4.534;2023-05-08T06:06:24;23.70;;;6.93;;
40252;SDS011;25972;51.854;4.534;2023-05-08T06:08:50;20.67;;;6.95;;
40252;SDS011;25972;51.854;4.534;2023-05-08T06:11:16;19.45;;;7.18;;
40252;SDS011;25972;51.854;4.534;2023-05-08T06:13:41;21.35;;;6.93;;
40252;SDS011;25972;51.854;4.534;2023-05-08T06:16:08;25.63;;;7.63;;
40252;SDS011;25972;51.854;4.534;2023-05-08T06:18:34;23.55;;;7.90;;
40252;SDS011;25972;51.854;4.534;2023-05-08T06:21:00;21.92;;;7.05;;
40252;SDS011;25972;51.854;4.534;2023-05-08T06:23:26;19.08;;;6.65;;
40252;SDS011;25972;51.854;4.534;2023-05-08T06:25:52;20.55;;;7.53;;
40252;SDS011;25972;51.854;4.534;2023-05-08T06:28:18;21.13;;;6.93;;
40252;SDS011;25972;51.854;4.534;2023-05-08T06:30:44;17.83;;;6.93;;
40252;SDS011;25972;51.854;4.534;2023-05-08T06:33:09;20.05;;;6.90;;
40252;SDS011;25972;51.854;4.534;2023-05-08T06:35:36;19.55;;;7.55;;
40252;SDS011;25972;51.854;4.534;2023-05-08T06:38:02;18.92;;;6.97;;
40252;SDS011;25972;51.854;4.534;2023-05-08T06:40:28;17.92;;;6.78;;
40252;SDS011;25972;51.854;4.534;2023-05-08T06:42:55;23.08;;;7.65;;
40252;SDS011;25972;51.854;4.534;2023-05-08T06:45:21;20.90;;;8.35;;
40252;SDS011;25972;51.854;4.534;2023-05-08T06:47:47;21.48;;;7.82;;
40252;SDS011;25972;51.854;4.534;2023-05-08T06:50:12;23.77;;;7.53;;
40252;SDS011;25972;51.854;4.534;2023-05-08T06:52:38;21.05;;;7.90;;
40252;SDS011;25972;51.854;4.534;2023-05-08T06:55:04;19.23;;;6.65;;
40252;SDS011;25972;51.854;4.534;2023-05-08T06:57:30;20.73;;;8.48;;
40252;SDS011;25972;51.854;4.534;2023-05-08T06:59:56;22.92;;;8.02;;
40252;SDS011;25972;51.854;4.534;2023-05-08T07:02:22;18.42;;;6.80;;
40252;SDS011;25972;51.854;4.534;2023-05-08T07:04:48;23.25;;;8.38;;
40252;SDS011;25972;51.854;4.534;2023-05-08T07:07:14;21.92;;;7.63;;
40252;SDS011;25972;51.854;4.534;2023-05-08T07:09:41;25.73;;;8.25;;
40252;SDS011;25972;51.854;4.534;2023-05-08T07:12:07;20.35;;;7.00;;
40252;SDS011;25972;51.854;4.534;2023-05-08T07:14:33;24.25;;;8.98;;
40252;SDS011;25972;51.854;4.534;2023-05-08T07:17:01;17.13;;;7.20;;
40252;SDS011;25972;51.854;4.534;2023-05-08T07:19:31;22.20;;;7.22;;
40252;SDS011;25972;51.854;4.534;2023-05-08T07:21:59;26.67;;;8.95;;
40252;SDS011;25972;51.854;4.534;2023-05-08T07:24:25;21.35;;;8.50;;
40252;SDS011;25972;51.854;4.534;2023-05-08T07:26:50;15.93;;;7.22;;
40252;SDS011;25972;51.854;4.534;2023-05-08T07:29:16;21.60;;;8.52;;
40252;SDS011;25972;51.854;4.534;2023-05-08T07:31:42;20.85;;;8.75;;
40252;SDS011;25972;51.854;4.534;2023-05-08T07:34:09;20.05;;;7.60;;
40252;SDS011;25972;51.854;4.534;2023-05-08T07:36:35;19.10;;;7.70;;
40252;SDS011;25972;51.854;4.534;2023-05-08T07:39:02;20.17;;;8.40;;
40252;SDS011;25972;51.854;4.534;2023-05-08T07:41:28;20.25;;;8.75;;
40252;SDS011;25972;51.854;4.534;2023-05-08T07:43:54;22.48;;;8.75;;
40252;SDS011;25972;51.854;4.534;2023-05-08T07:46:20;26.45;;;10.48;;
40252;SDS011;25972;51.854;4.534;2023-05-08T07:48:45;23.95;;;10.05;;
40252;SDS011;25972;51.854;4.534;2023-05-08T07:51:12;20.88;;;9.32;;
40252;SDS011;25972;51.854;4.534;2023-05-08T07:53:38;20.60;;;7.75;;
40252;SDS011;25972;51.854;4.534;2023-05-08T07:56:04;23.23;;;8.57;;
40252;SDS011;25972;51.854;4.534;2023-05-08T07:58:31;21.50;;;8.02;;
40252;SDS011;25972;51.854;4.534;2023-05-08T08:00:56;24.73;;;9.45;;
40252;SDS011;25972;51.854;4.534;2023-05-08T08:03:22;23.55;;;9.88;;
40252;SDS011;25972;51.854;4.534;2023-05-08T08:05:48;26.27;;;10.90;;
40252;SDS011;25972;51.854;4.534;2023-05-08T08:08:14;35.60;;;12.93;;
40252;SDS011;25972;51.854;4.534;2023-05-08T08:10:40;30.05;;;12.10;;
40252;SDS011;25972;51.854;4.534;2023-05-08T08:13:06;32.92;;;12.95;;
40252;SDS011;25972;51.854;4.534;2023-05-08T08:15:32;33.60;;;12.55;;
40252;SDS011;25972;51.854;4.534;2023-05-08T08:17:58;33.42;;;12.50;;
40252;SDS011;25972;51.854;4.534;2023-05-08T08:20:23;29.35;;;11.68;;
40252;SDS011;25972;51.854;4.534;2023-05-08T08:22:49;36.08;;;12.63;;
40252;SDS011;25972;51.854;4.534;2023-05-08T08:25:15;35.50;;;13.20;;
40252;SDS011;25972;51.854;4.534;2023-05-08T08:27:42;30.67;;;12.85;;
40252;SDS011;25972;51.854;4.534;2023-05-08T08:30:08;30.30;;;11.52;;
40252;SDS011;25972;51.854;4.534;2023-05-08T08:32:33;36.70;;;13.77;;
40252;SDS011;25972;51.854;4.534;2023-05-08T08:34:59;35.47;;;13.30;;
40252;SDS011;25972;51.854;4.534;2023-05-08T08:37:25;39.00;;;13.77;;
40252;SDS011;25972;51.854;4.534;2023-05-08T08:39:51;33.38;;;12.40;;
40252;SDS011;25972;51.854;4.534;2023-05-08T08:42:17;31.20;;;12.82;;
40252;SDS011;25972;51.854;4.534;2023-05-08T08:44:43;34.90;;;13.63;;
40252;SDS011;25972;51.854;4.534;2023-05-08T08:47:09;38.33;;;14.85;;
40252;SDS011;25972;51.854;4.534;2023-05-08T08:49:43;34.60;;;13.75;;
40252;SDS011;25972;51.854;4.534;2023-05-08T08:54:50;33.92;;;12.70;;
40252;SDS011;25972;51.854;4.534;2023-05-08T08:57:19;30.80;;;13.30;;
40252;SDS011;25972;51.854;4.534;2023-05-08T08:59:47;36.20;;;13.27;;
40252;SDS011;25972;51.854;4.534;2023-05-08T09:02:13;34.30;;;13.10;;
40252;SDS011;25972;51.854;4.534;2023-05-08T09:04:42;28.35;;;11.27;;
40252;SDS011;25972;51.854;4.534;2023-05-08T09:07:08;32.38;;;12.85;;
40252;SDS011;25972;51.854;4.534;2023-05-08T09:09:37;28.52;;;11.68;;
40252;SDS011;25972;51.854;4.534;2023-05-08T09:12:05;33.67;;;12.02;;
40252;SDS011;25972;51.854;4.534;2023-05-08T09:14:31;32.40;;;12.90;;
40252;SDS011;25972;51.854;4.534;2023-05-08T09:16:57;32.40;;;11.82;;
40252;SDS011;25972;51.854;4.534;2023-05-08T09:19:23;32.63;;;12.15;;
40252;SDS011;25972;51.854;4.534;2023-05-08T09:21:50;36.47;;;12.13;;
40252;SDS011;25972;51.854;4.534;2023-05-08T09:24:16;30.60;;;13.38;;
40252;SDS011;25972;51.854;4.534;2023-05-08T09:26:42;26.35;;;10.63;;
40252;SDS011;25972;51.854;4.534;2023-05-08T09:31:35;32.90;;;10.70;;
40252;SDS011;25972;51.854;4.534;2023-05-08T09:34:04;21.90;;;9.07;;
40252;SDS011;25972;51.854;4.534;2023-05-08T09:36:31;32.05;;;11.75;;
40252;SDS011;25972;51.854;4.534;2023-05-08T09:38:59;26.80;;;10.02;;
40252;SDS011;25972;51.854;4.534;2023-05-08T09:41:25;24.05;;;9.00;;
40252;SDS011;25972;51.854;4.534;2023-05-08T09:44:04;27.52;;;10.25;;
40252;SDS011;25972;51.854;4.534;2023-05-08T09:46:31;26.98;;;11.80;;
40252;SDS011;25972;51.854;4.534;2023-05-08T09:48:58;26.25;;;10.88;;
40252;SDS011;25972;51.854;4.534;2023-05-08T09:51:26;28.85;;;11.35;;
40252;SDS011;25972;51.854;4.534;2023-05-08T09:53:54;28.08;;;10.93;;
40252;SDS011;25972;51.854;4.534;2023-05-08T09:56:54;28.25;;;11.18;;
40252;SDS011;25972;51.854;4.534;2023-05-08T09:59:23;23.95;;;9.98;;
40252;SDS011;25972;51.854;4.534;2023-05-08T10:01:56;23.70;;;10.13;;
40252;SDS011;25972;51.854;4.534;2023-05-08T10:04:32;21.92;;;10.07;;
40252;SDS011;25972;51.854;4.534;2023-05-08T10:06:59;25.52;;;9.63;;
40252;SDS011;25972;51.854;4.534;2023-05-08T10:09:25;17.38;;;8.38;;
40252;SDS011;25972;51.854;4.534;2023-05-08T10:11:52;28.80;;;10.98;;
40252;SDS011;25972;51.854;4.534;2023-05-08T10:14:20;21.58;;;9.57;;
40252;SDS011;25972;51.854;4.534;2023-05-08T10:16:47;25.15;;;10.25;;
40252;SDS011;25972;51.854;4.534;2023-05-08T10:19:16;18.60;;;7.85;;
40252;SDS011;25972;51.854;4.534;2023-05-08T10:21:49;23.65;;;9.75;;
40252;SDS011;25972;51.854;4.534;2023-05-08T10:26:47;20.63;;;10.15;;
40252;SDS011;25972;51.854;4.534;2023-05-08T10:29:24;18.50;;;8.38;;
40252;SDS011;25972;51.854;4.534;2023-05-08T10:31:57;24.85;;;10.60;;
40252;SDS011;25972;51.854;4.534;2023-05-08T10:34:25;17.48;;;8.38;;
40252;SDS011;25972;51.854;4.534;2023-05-08T10:36:52;24.70;;;10.30;;
40252;SDS011;25972;51.854;4.534;2023-05-08T10:39:19;21.60;;;9.63;;
40252;SDS011;25972;51.854;4.534;2023-05-08T10:41:46;23.45;;;10.75;;
40252;SDS011;25972;51.854;4.534;2023-05-08T10:44:13;22.42;;;9.82;;
40252;SDS011;25972;51.854;4.534;2023-05-08T10:52:33;20.13;;;8.18;;
40252;SDS011;25972;51.854;4.534;2023-05-08T10:55:17;21.38;;;9.45;;
40252;SDS011;25972;51.854;4.534;2023-05-08T10:58:04;19.33;;;8.65;;
40252;SDS011;25972;51.854;4.534;2023-05-08T11:03:17;21.77;;;8.95;;
40252;SDS011;25972;51.854;4.534;2023-05-08T11:05:47;20.50;;;9.82;;
40252;SDS011;25972;51.854;4.534;2023-05-08T11:08:14;19.10;;;9.55;;
40252;SDS011;25972;51.854;4.534;2023-05-08T11:15:54;22.02;;;10.25;;
40252;SDS011;25972;51.854;4.534;2023-05-08T11:18:20;19.60;;;9.23;;
40252;SDS011;25972;51.854;4.534;2023-05-08T11:20:54;18.90;;;7.97;;
40252;SDS011;25972;51.854;4.534;2023-05-08T11:23:22;18.23;;;9.60;;
40252;SDS011;25972;51.854;4.534;2023-05-08T11:28:38;16.27;;;7.50;;
40252;SDS011;25972;51.854;4.534;2023-05-08T11:31:19;16.40;;;7.78;;
40252;SDS011;25972;51.854;4.534;2023-05-08T11:33:45;17.60;;;8.50;;
40252;SDS011;25972;51.854;4.534;2023-05-08T11:36:12;14.60;;;7.80;;
40252;SDS011;25972;51.854;4.534;2023-05-08T11:38:43;15.95;;;7.90;;
40252;SDS011;25972;51.854;4.534;2023-05-08T11:41:31;20.00;;;8.38;;
40252;SDS011;25972;51.854;4.534;2023-05-08T11:44:05;16.48;;;8.82;;
40252;SDS011;25972;51.854;4.534;2023-05-08T11:46:41;16.77;;;9.18;;
40252;SDS011;25972;51.854;4.534;2023-05-08T11:49:14;20.38;;;9.52;;
40252;SDS011;25972;51.854;4.534;2023-05-08T11:51:41;19.48;;;10.40;;
40252;SDS011;25972;51.854;4.534;2023-05-08T11:54:13;17.40;;;8.88;;
40252;SDS011;25972;51.854;4.534;2023-05-08T11:56:49;20.42;;;9.38;;
40252;SDS011;25972;51.854;4.534;2023-05-08T11:59:19;19.20;;;9.05;;
40252;SDS011;25972;51.854;4.534;2023-05-08T12:01:48;19.92;;;9.82;;
40252;SDS011;25972;51.854;4.534;2023-05-08T12:04:15;19.90;;;8.70;;
40252;SDS011;25972;51.854;4.534;2023-05-08T12:06:41;17.88;;;8.30;;
40252;SDS011;25972;51.854;4.534;2023-05-08T12:09:12;22.05;;;9.32;;
40252;SDS011;25972;51.854;4.534;2023-05-08T12:11:40;19.85;;;8.93;;
40252;SDS011;25972;51.854;4.534;2023-05-08T12:14:08;22.45;;;9.77;;
40252;SDS011;25972;51.854;4.534;2023-05-08T12:16:35;25.35;;;11.40;;
40252;SDS011;25972;51.854;4.534;2023-05-08T12:19:03;32.17;;;12.75;;
40252;SDS011;25972;51.854;4.534;2023-05-08T12:21:33;26.63;;;10.55;;
40252;SDS011;25972;51.854;4.534;2023-05-08T12:23:59;36.33;;;13.98;;
40252;SDS011;25972;51.854;4.534;2023-05-08T12:26:25;50.72;;;17.73;;
40252;SDS011;25972;51.854;4.534;2023-05-08T12:28:54;42.33;;;17.05;;
40252;SDS011;25972;51.854;4.534;2023-05-08T12:31:21;43.10;;;15.73;;
40252;SDS011;25972;51.854;4.534;2023-05-08T12:33:47;51.65;;;15.32;;
40252;SDS011;25972;51.854;4.534;2023-05-08T12:36:14;59.45;;;19.30;;
40252;SDS011;25972;51.854;4.534;2023-05-08T12:38:40;60.70;;;20.38;;
40252;SDS011;25972;51.854;4.534;2023-05-08T12:41:06;54.28;;;17.25;;
40252;SDS011;25972;51.854;4.534;2023-05-08T12:43:34;54.67;;;17.73;;
40252;SDS011;25972;51.854;4.534;2023-05-08T12:46:01;53.08;;;18.60;;
40252;SDS011;25972;51.854;4.534;2023-05-08T12:48:29;59.67;;;22.83;;
40252;SDS011;25972;51.854;4.534;2023-05-08T12:51:00;70.80;;;22.63;;
40252;SDS011;25972;51.854;4.534;2023-05-08T12:53:28;56.22;;;19.73;;
40252;SDS011;25972;51.854;4.534;2023-05-08T12:55:56;51.58;;;17.00;;
40252;SDS011;25972;51.854;4.534;2023-05-08T12:58:25;59.33;;;20.77;;
40252;SDS011;25972;51.854;4.534;2023-05-08T13:00:53;68.43;;;22.17;;
40252;SDS011;25972;51.854;4.534;2023-05-08T13:03:37;68.68;;;23.88;;
40252;SDS011;25972;51.854;4.534;2023-05-08T13:06:04;51.55;;;18.02;;
40252;SDS011;25972;51.854;4.534;2023-05-08T13:08:37;52.78;;;19.70;;
40252;SDS011;25972;51.854;4.534;2023-05-08T13:11:04;56.47;;;19.73;;
40252;SDS011;25972;51.854;4.534;2023-05-08T13:13:34;49.17;;;17.23;;
40252;SDS011;25972;51.854;4.534;2023-05-08T13:16:05;52.33;;;18.27;;
40252;SDS011;25972;51.854;4.534;2023-05-08T13:18:31;45.03;;;16.42;;
40252;SDS011;25972;51.854;4.534;2023-05-08T13:21:00;51.90;;;18.08;;
40252;SDS011;25972;51.854;4.534;2023-05-08T13:23:26;56.40;;;20.73;;
40252;SDS011;25972;51.854;4.534;2023-05-08T13:25:52;54.70;;;18.90;;
40252;SDS011;25972;51.854;4.534;2023-05-08T13:28:17;50.88;;;21.65;;
40252;SDS011;25972;51.854;4.534;2023-05-08T13:30:43;39.42;;;16.98;;
40252;SDS011;25972;51.854;4.534;2023-05-08T13:33:09;43.85;;;18.10;;
40252;SDS011;25972;51.854;4.534;2023-05-08T13:35:35;34.55;;;14.70;;
40252;SDS011;25972;51.854;4.534;2023-05-08T13:38:02;45.42;;;17.13;;
40252;SDS011;25972;51.854;4.534;2023-05-08T13:40:27;28.30;;;13.70;;
40252;SDS011;25972;51.854;4.534;2023-05-08T13:42:54;39.10;;;14.95;;
40252;SDS011;25972;51.854;4.534;2023-05-08T13:45:19;34.90;;;14.30;;
40252;SDS011;25972;51.854;4.534;2023-05-08T13:47:46;31.70;;;12.50;;
40252;SDS011;25972;51.854;4.534;2023-05-08T13:50:14;24.48;;;11.00;;
40252;SDS011;25972;51.854;4.534;2023-05-08T13:52:46;23.27;;;10.65;;
40252;SDS011;25972;51.854;4.534;2023-05-08T13:55:12;20.70;;;9.27;;
40252;SDS011;25972;51.854;4.534;2023-05-08T13:57:39;21.15;;;9.40;;
40252;SDS011;25972;51.854;4.534;2023-05-08T14:00:06;15.20;;;6.03;;
40252;SDS011;25972;51.854;4.534;2023-05-08T14:02:33;20.13;;;8.88;;
40252;SDS011;25972;51.854;4.534;2023-05-08T14:04:59;19.30;;;8.88;;
40252;SDS011;25972;51.854;4.534;2023-05-08T14:07:25;24.00;;;10.18;;
40252;SDS011;25972;51.854;4.534;2023-05-08T14:09:52;18.15;;;7.32;;
40252;SDS011;25972;51.854;4.534;2023-05-08T14:12:18;23.73;;;9.80;;
40252;SDS011;25972;51.854;4.534;2023-05-08T14:14:44;23.45;;;10.38;;
40252;SDS011;25972;51.854;4.534;2023-05-08T14:17:10;19.67;;;9.40;;
40252;SDS011;25972;51.854;4.534;2023-05-08T14:19:36;24.88;;;10.02;;
40252;SDS011;25972;51.854;4.534;2023-05-08T14:22:01;19.35;;;8.27;;
40252;SDS011;25972;51.854;4.534;2023-05-08T14:24:27;25.13;;;10.82;;
40252;SDS011;25972;51.854;4.534;2023-05-08T14:26:53;17.10;;;7.45;;
40252;SDS011;25972;51.854;4.534;2023-05-08T14:29:19;18.42;;;8.63;;
40252;SDS011;25972;51.854;4.534;2023-05-08T14:31:45;21.50;;;8.80;;
40252;SDS011;25972;51.854;4.534;2023-05-08T14:34:11;18.70;;;8.77;;
40252;SDS011;25972;51.854;4.534;2023-05-08T14:36:37;17.88;;;8.60;;
40252;SDS011;25972;51.854;4.534;2023-05-08T14:39:03;20.65;;;8.25;;
40252;SDS011;25972;51.854;4.534;2023-05-08T14:41:29;20.42;;;8.52;;
40252;SDS011;25972;51.854;4.534;2023-05-08T14:43:55;18.55;;;7.97;;
40252;SDS011;25972;51.854;4.534;2023-05-08T14:46:22;19.67;;;8.80;;
40252;SDS011;25972;51.854;4.534;2023-05-08T14:48:49;18.33;;;7.60;;
40252;SDS011;25972;51.854;4.534;2023-05-08T14:51:15;18.30;;;7.82;;
40252;SDS011;25972;51.854;4.534;2023-05-08T14:53:43;18.73;;;7.75;;
40252;SDS011;25972;51.854;4.534;2023-05-08T14:56:09;17.13;;;7.75;;
40252;SDS011;25972;51.854;4.534;2023-05-08T14:58:35;15.88;;;7.38;;
40252;SDS011;25972;51.854;4.534;2023-05-08T15:01:01;12.75;;;5.97;;
40252;SDS011;25972;51.854;4.534;2023-05-08T15:03:27;10.88;;;5.22;;
40252;SDS011;25972;51.854;4.534;2023-05-08T15:05:53;10.63;;;5.35;;
40252;SDS011;25972;51.854;4.534;2023-05-08T15:08:19;10.63;;;5.22;;
40252;SDS011;25972;51.854;4.534;2023-05-08T15:10:45;12.93;;;5.70;;
40252;SDS011;25972;51.854;4.534;2023-05-08T15:13:11;12.15;;;5.38;;
40252;SDS011;25972;51.854;4.534;2023-05-08T15:15:38;14.98;;;6.60;;
40252;SDS011;25972;51.854;4.534;2023-05-08T15:18:04;14.90;;;7.05;;
40252;SDS011;25972;51.854;4.534;2023-05-08T15:20:30;15.55;;;6.53;;
40252;SDS011;25972;51.854;4.534;2023-05-08T15:22:56;15.05;;;6.57;;